Time;durP1;ratioP1;P1;durP2;ratioP2;P2;SDS_P1;SDS_P2;PMS_P1;PMS_P2;Temp;Humidity;BMP_temperature;BMP_pressure;BME280_temperature;BME280_humidity;BME280_pressure;Samples;Min_cycle;Max_cycle;Signal;HPM_P1;HPM_P2
2022/03/31 00:01:38;;;;;;;;;;;;;;;;;;5160292;27;19911;-28
2022/03/31 00:04:04;;;;;;;;;;;;;;;;;;5159716;27;19922;-29
2022/03/31 00:06:30;;;;;;;;;;;;;;;;;;5159843;27;20249;-29
2022/03/31 00:08:56;;;;;;;;;;;;;;;;;;5160169;27;19945;-29
2022/03/31 00:11:22;;;;;;;;;;;;;;;;;;5159845;27;20258;-28
2022/03/31 00:13:49;;;;;;;;;;;;;;;;;;5159717;27;19908;-29
2022/03/31 00:16:15;;;;;;;;;;;;;;;;;;5159786;27;19915;-28
2022/03/31 00:18:41;;;;;;;;;;;;;;;;;;5141432;27;19922;-29
2022/03/31 00:34:50;;;;;;;;;;;;;;;;;;5159828;27;20364;-29
2022/03/31 00:37:25;;;;;;;;;;;;;;;;;;5159581;27;19911;-29
2022/03/31 00:39:51;;;;;;;;;;;;;;;;;;5159236;27;19907;-29
2022/03/31 00:42:17;;;;;;;;;;;;;;;;;;5159385;27;19911;-28
2022/03/31 00:44:43;;;;;;;;;;;;;;;;;;5159495;27;19990;-28
2022/03/31 00:47:09;;;;;;;;;;;;;;;;;;5159077;27;20441;-29
2022/03/31 00:49:35;;;;;;;;;;;;;;;;;;5159044;27;19915;-29
2022/03/31 00:52:01;;;;;;;;;;;;;;;;;;5158985;27;19925;-29
2022/03/31 00:54:27;;;;;;;;;;;;;;;;;;5159023;27;19907;-29
2022/03/31 00:56:53;;;;;;;;;;;;;;;;;;5159288;27;19918;-29
2022/03/31 00:59:19;;;;;;;;;;;;;;;;;;5157706;27;20276;-29
2022/03/31 01:01:45;;;;;;;;;;;;;;;;;;5140654;27;20001;-29
2022/03/31 01:04:13;;;;;;;;;;;;;;;;;;5158588;27;20030;-29
2022/03/31 01:06:39;;;;;;;;;;;;;;;;;;5158667;27;19915;-29
2022/03/31 01:09:05;;;;;;;;;;;;;;;;;;5158779;27;19947;-28
2022/03/31 01:11:31;;;;;;;;;;;;;;;;;;5158680;27;19911;-28
2022/03/31 01:13:57;;;;;;;;;;;;;;;;;;5140323;27;20002;-29
2022/03/31 01:16:23;;;;;;;;;;;;;;;;;;5158527;27;19954;-29
2022/03/31 01:18:52;;;;;;;;;;;;;;;;;;5158566;27;19907;-29
2022/03/31 01:21:18;;;;;;;;;;;;;;;;;;5158385;27;19911;-29
2022/03/31 01:23:44;;;;;;;;;;;;;;;;;;5158309;27;20269;-29
2022/03/31 01:26:10;;;;;;;;;;;;;;;;;;5158558;27;19958;-28
2022/03/31 01:28:36;;;;;;;;;;;;;;;;;;5158284;27;19907;-29
2022/03/31 01:31:02;;;;;;;;;;;;;;;;;;5158212;27;19911;-28
2022/03/31 01:33:28;;;;;;;;;;;;;;;;;;5158241;27;19918;-28
2022/03/31 01:35:55;;;;;;;;;;;;;;;;;;5158259;27;19911;-28
2022/03/31 01:38:21;;;;;;;;;;;;;;;;;;5158128;27;19942;-29
2022/03/31 01:40:47;;;;;;;;;;;;;;;;;;5158178;27;20402;-29
2022/03/31 01:43:13;;;;;;;;;;;;;;;;;;5157950;27;19922;-28
2022/03/31 01:45:39;;;;;;;;;;;;;;;;;;5158302;27;19907;-29
2022/03/31 01:48:05;;;;;;;;;;;;;;;;;;5158171;27;19919;-29
2022/03/31 01:50:31;;;;;;;;;;;;;;;;;;5157928;27;19967;-29
2022/03/31 01:52:57;;;;;;;;;;;;;;;;;;5139523;27;20372;-29
2022/03/31 01:55:24;;;;;;;;;;;;;;;;;;5158091;27;19907;-28
2022/03/31 01:57:50;;;;;;;;;;;;;;;;;;5157748;27;19912;-28
2022/03/31 02:00:16;;;;;;;;;;;;;;;;;;5157712;27;20349;-29
2022/03/31 02:02:42;;;;;;;;;;;;;;;;;;5157370;27;19951;-29
2022/03/31 02:05:08;;;;;;;;;;;;;;;;;;5139388;27;20293;-30
2022/03/31 02:07:34;;;;;;;;;;;;;;;;;;5157404;27;19919;-29
2022/03/31 02:10:00;;;;;;;;;;;;;;;;;;5157481;27;19961;-28
2022/03/31 02:12:26;;;;;;;;;;;;;;;;;;5157680;27;20005;-29
2022/03/31 02:14:52;;;;;;;;;;;;;;;;;;5158207;27;19914;-29
2022/03/31 02:17:18;;;;;;;;;;;;;;;;;;5157377;27;19928;-29
2022/03/31 02:19:44;;;;;;;;;;;;;;;;;;5157680;27;19911;-29
2022/03/31 02:22:10;;;;;;;;;;;;;;;;;;5157302;27;20014;-29
2022/03/31 02:24:36;;;;;;;;;;;;;;;;;;5157844;27;19911;-29
2022/03/31 02:27:02;;;;;;;;;;;;;;;;;;5157161;27;19987;-29
2022/03/31 02:29:28;;;;;;;;;;;;;;;;;;5157220;27;19911;-29
2022/03/31 02:31:54;;;;;;;;;;;;;;;;;;5157412;27;20052;-29
2022/03/31 02:34:20;;;;;;;;;;;;;;;;;;5157143;27;20350;-28
2022/03/31 02:36:46;;;;;;;;;;;;;;;;;;5157373;27;19911;-29
2022/03/31 02:39:12;;;;;;;;;;;;;;;;;;5156998;27;20349;-29
2022/03/31 02:41:38;;;;;;;;;;;;;;;;;;5157045;27;20254;-28
2022/03/31 02:44:04;;;;;;;;;;;;;;;;;;5138863;27;19914;-28
2022/03/31 02:46:31;;;;;;;;;;;;;;;;;;5156900;27;20230;-29
2022/03/31 02:48:57;;;;;;;;;;;;;;;;;;5157270;27;20387;-29
2022/03/31 02:51:23;;;;;;;;;;;;;;;;;;5156894;27;20001;-29
2022/03/31 02:56:34;;;;;;;;;;;;;;;;;;5156927;27;19922;-28
2022/03/31 02:59:00;;;;;;;;;;;;;;;;;;5156831;27;19918;-29
2022/03/31 03:01:27;;;;;;;;;;;;;;;;;;5156844;27;19911;-29
2022/03/31 03:03:53;;;;;;;;;;;;;;;;;;5156561;27;20007;-28
2022/03/31 03:06:19;;;;;;;;;;;;;;;;;;5138541;27;19915;-29
2022/03/31 03:08:45;;;;;;;;;;;;;;;;;;5156732;27;19933;-29
2022/03/31 03:11:11;;;;;;;;;;;;;;;;;;5156723;27;19911;-29
2022/03/31 03:13:37;;;;;;;;;;;;;;;;;;5156624;27;19907;-28
2022/03/31 03:16:08;;;;;;;;;;;;;;;;;;5156684;27;19911;-29
2022/03/31 03:18:34;;;;;;;;;;;;;;;;;;5156644;27;19918;-29
2022/03/31 03:21:00;;;;;;;;;;;;;;;;;;5156549;27;20000;-29
2022/03/31 03:23:26;;;;;;;;;;;;;;;;;;5160782;27;19918;-29
2022/03/31 03:25:52;;;;;;;;;;;;;;;;;;5160685;27;20317;-29
2022/03/31 03:28:19;;;;;;;;;;;;;;;;;;5142473;27;19990;-29
2022/03/31 03:30:45;;;;;;;;;;;;;;;;;;5160545;27;19937;-28
2022/03/31 03:33:11;;;;;;;;;;;;;;;;;;5160785;27;19934;-29
2022/03/31 03:35:37;;;;;;;;;;;;;;;;;;5160536;27;20306;-29
2022/03/31 03:38:03;;;;;;;;;;;;;;;;;;5160491;27;19914;-29
2022/03/31 03:40:31;;;;;;;;;;;;;;;;;;5142253;27;19999;-29
2022/03/31 03:42:57;;;;;;;;;;;;;;;;;;5160302;27;19969;-29
2022/03/31 03:45:23;;;;;;;;;;;;;;;;;;5160266;27;19908;-29
2022/03/31 03:47:49;;;;;;;;;;;;;;;;;;5160469;27;19919;-29
2022/03/31 03:50:15;;;;;;;;;;;;;;;;;;5160159;27;19918;-29
2022/03/31 03:52:41;;;;;;;;;;;;;;;;;;5160204;27;19917;-29
2022/03/31 03:55:07;;;;;;;;;;;;;;;;;;5160254;27;19966;-29
2022/03/31 03:57:34;;;;;;;;;;;;;;;;;;5159998;27;19956;-29
2022/03/31 04:00:00;;;;;;;;;;;;;;;;;;5160012;27;19915;-28
2022/03/31 04:02:26;;;;;;;;;;;;;;;;;;5159655;27;19907;-28
2022/03/31 04:04:52;;;;;;;;;;;;;;;;;;5160149;27;20298;-28
2022/03/31 04:07:18;;;;;;;;;;;;;;;;;;5159813;27;19919;-29
2022/03/31 04:09:44;;;;;;;;;;;;;;;;;;5159620;27;19911;-28
2022/03/31 04:12:10;;;;;;;;;;;;;;;;;;5159381;27;19915;-29
2022/03/31 04:14:36;;;;;;;;;;;;;;;;;;5159339;27;19911;-29
2022/03/31 04:17:02;;;;;;;;;;;;;;;;;;5159333;27;19934;-29
2022/03/31 04:19:28;;;;;;;;;;;;;;;;;;5159575;27;19971;-30
2022/03/31 04:21:54;;;;;;;;;;;;;;;;;;5159173;27;20356;-29
2022/03/31 04:24:20;;;;;;;;;;;;;;;;;;5140916;27;19911;-29
2022/03/31 04:26:46;;;;;;;;;;;;;;;;;;5159248;27;19911;-28
2022/03/31 04:29:12;;;;;;;;;;;;;;;;;;5159213;27;19923;-28
2022/03/31 04:31:39;;;;;;;;;;;;;;;;;;5159121;27;19911;-29
2022/03/31 04:34:05;;;;;;;;;;;;;;;;;;5158748;27;19911;-28
2022/03/31 04:36:31;;;;;;;;;;;;;;;;;;5159029;27;19915;-29
2022/03/31 04:38:57;;;;;;;;;;;;;;;;;;5159096;27;20072;-29
2022/03/31 04:41:23;;;;;;;;;;;;;;;;;;5159077;27;19918;-29
2022/03/31 04:43:51;;;;;;;;;;;;;;;;;;5158818;27;19911;-29
2022/03/31 04:46:18;;;;;;;;;;;;;;;;;;5140684;27;19915;-29
2022/03/31 04:48:44;;;;;;;;;;;;;;;;;;5158943;27;19928;-29
2022/03/31 04:51:10;;;;;;;;;;;;;;;;;;5159151;27;19922;-28
2022/03/31 04:53:36;;;;;;;;;;;;;;;;;;5158707;27;20260;-28
2022/03/31 04:56:02;;;;;;;;;;;;;;;;;;5140387;27;20282;-29
2022/03/31 04:58:28;;;;;;;;;;;;;;;;;;5158536;27;19907;-29
2022/03/31 05:00:55;;;;;;;;;;;;;;;;;;5158431;27;19914;-28
2022/03/31 05:03:22;;;;;;;;;;;;;;;;;;5158542;27;19930;-29
2022/03/31 05:05:48;;;;;;;;;;;;;;;;;;5158875;27;19915;-30
2022/03/31 05:08:14;;;;;;;;;;;;;;;;;;5158497;27;19919;-29
2022/03/31 05:10:40;;;;;;;;;;;;;;;;;;5158463;27;19922;-28
2022/03/31 05:13:07;;;;;;;;;;;;;;;;;;5159043;27;19908;-29
2022/03/31 05:15:33;;;;;;;;;;;;;;;;;;5159505;27;19957;-30
2022/03/31 05:17:59;;;;;;;;;;;;;;;;;;5140006;27;19967;-28
2022/03/31 05:20:25;;;;;;;;;;;;;;;;;;5158398;27;20001;-28
2022/03/31 05:22:51;;;;;;;;;;;;;;;;;;5158102;27;19911;-28
2022/03/31 05:25:17;;;;;;;;;;;;;;;;;;5158415;27;19917;-29
2022/03/31 05:27:43;;;;;;;;;;;;;;;;;;5158365;27;20250;-29
2022/03/31 05:30:09;;;;;;;;;;;;;;;;;;5157834;27;19917;-28
2022/03/31 05:32:35;;;;;;;;;;;;;;;;;;5139696;27;19911;-29
2022/03/31 05:35:01;;;;;;;;;;;;;;;;;;5157925;27;20248;-29
2022/03/31 05:37:27;;;;;;;;;;;;;;;;;;5157881;27;19907;-29
2022/03/31 05:39:53;;;;;;;;;;;;;;;;;;5157920;27;19990;-28
2022/03/31 05:42:19;;;;;;;;;;;;;;;;;;5157816;27;19938;-29
2022/03/31 05:44:45;;;;;;;;;;;;;;;;;;5138752;27;19911;-29
2022/03/31 05:47:11;;;;;;;;;;;;;;;;;;5157588;27;19926;-29
2022/03/31 05:49:37;;;;;;;;;;;;;;;;;;5157636;27;19911;-29
2022/03/31 05:52:03;;;;;;;;;;;;;;;;;;5157828;27;19999;-29
2022/03/31 05:54:30;;;;;;;;;;;;;;;;;;5157529;27;19911;-28
2022/03/31 05:56:56;;;;;;;;;;;;;;;;;;5139176;27;19907;-29
2022/03/31 05:59:22;;;;;;;;;;;;;;;;;;5157478;27;19911;-29
2022/03/31 06:04:23;;;;;;;;;;;;;;;;;;5092364;28;19934;-27
2022/03/31 06:06:49;;;;;;;;;;;;;;;;;;5095517;28;19936;-26
2022/03/31 06:09:15;;;;;;;;;;;;;;;;;;5095658;28;20312;-26
2022/03/31 06:11:42;;;;;;;;;;;;;;;;;;5095532;28;19912;-26
2022/03/31 06:14:08;;;;;;;;;;;;;;;;;;5096164;28;20358;-26
2022/03/31 06:16:34;;;;;;;;;;;;;;;;;;5095418;28;20280;-26
2022/03/31 06:19:00;;;;;;;;;;;;;;;;;;5095429;28;19915;-26
2022/03/31 06:21:26;;;;;;;;;;;;;;;;;;5095594;28;19948;-27
2022/03/31 06:23:52;;;;;;;;;;;;;;;;;;5095544;28;19954;-27
2022/03/31 06:26:18;;;;;;;;;;;;;;;;;;5095156;28;19963;-27
2022/03/31 06:28:44;;;;;;;;;;;;;;;;;;5095466;28;19911;-27
2022/03/31 06:31:10;;;;;;;;;;;;;;;;;;5095480;28;20284;-27
2022/03/31 06:33:37;;;;;;;;;;;;;;;;;;5095256;28;20319;-27
2022/03/31 06:36:03;;;;;;;;;;;;;;;;;;5095155;28;19912;-27
2022/03/31 06:38:29;;;;;;;;;;;;;;;;;;5077251;28;19912;-27
2022/03/31 06:41:07;;;;;;;;;;;;;;;;;;5095192;28;19915;-27
2022/03/31 06:43:33;;;;;;;;;;;;;;;;;;5095346;28;19912;-27
2022/03/31 06:45:59;;;;;;;;;;;;;;;;;;5095266;28;20368;-27
2022/03/31 06:48:26;;;;;;;;;;;;;;;;;;5095078;28;19912;-27
2022/03/31 06:50:52;;;;;;;;;;;;;;;;;;5095049;28;19966;-27
2022/03/31 06:53:18;;;;;;;;;;;;;;;;;;5094880;28;19908;-26
2022/03/31 06:55:44;;;;;;;;;;;;;;;;;;5094139;28;20385;-26
2022/03/31 06:58:10;;;;;;;;;;;;;;;;;;5094955;28;19951;-26
2022/03/31 07:00:36;;;;;;;;;;;;;;;;;;5094780;28;19923;-27
2022/03/31 07:03:02;;;;;;;;;;;;;;;;;;5085906;28;19973;-27
2022/03/31 07:05:28;;;;;;;;;;;;;;;;;;5074619;28;19913;-27
2022/03/31 07:07:54;;;;;;;;;;;;;;;;;;5074743;28;19966;-27
2022/03/31 07:10:21;;;;;;;;;;;;;;;;;;5056854;28;19966;-27
2022/03/31 07:12:47;;;;;;;;;;;;;;;;;;5074828;28;20269;-27
2022/03/31 07:15:13;;;;;;;;;;;;;;;;;;5074680;28;19996;-27
2022/03/31 07:17:39;;;;;;;;;;;;;;;;;;5074468;28;19923;-27
2022/03/31 07:20:05;;;;;;;;;;;;;;;;;;5074507;28;19913;-27
2022/03/31 07:22:32;;;;;;;;;;;;;;;;;;5074469;28;19912;-26
2022/03/31 07:24:58;;;;;;;;;;;;;;;;;;5074337;28;19923;-27
2022/03/31 07:27:24;;;;;;;;;;;;;;;;;;5074449;28;19912;-27
2022/03/31 07:29:50;;;;;;;;;;;;;;;;;;5074036;28;19930;-27
2022/03/31 07:32:16;;;;;;;;;;;;;;;;;;5074289;28;20410;-27
2022/03/31 07:34:42;;;;;;;;;;;;;;;;;;5074170;28;19912;-27
2022/03/31 07:37:08;;;;;;;;;;;;;;;;;;5074157;28;19939;-27
2022/03/31 07:39:35;;;;;;;;;;;;;;;;;;5074334;28;19912;-27
2022/03/31 07:42:02;;;;;;;;;;;;;;;;;;5073955;28;20388;-27
2022/03/31 07:44:28;;;;;;;;;;;;;;;;;;5074144;28;19916;-27
2022/03/31 07:46:56;;;;;;;;;;;;;;;;;;5073880;28;19917;-27
2022/03/31 07:49:22;;;;;;;;;;;;;;;;;;5074160;28;19912;-28
2022/03/31 07:51:48;;;;;;;;;;;;;;;;;;5073964;28;20060;-27
2022/03/31 07:54:14;;;;;;;;;;;;;;;;;;5074338;28;19913;-27
2022/03/31 07:56:40;;;;;;;;;;;;;;;;;;5074305;28;20242;-27
2022/03/31 07:59:06;;;;;;;;;;;;;;;;;;5074111;28;19913;-27
2022/03/31 08:01:33;;;;;;;;;;;;;;;;;;5074490;28;19912;-27
2022/03/31 08:03:59;;;;;;;;;;;;;;;;;;5074095;28;19928;-27
2022/03/31 08:06:25;;;;;;;;;;;;;;;;;;5074546;28;19916;-27
2022/03/31 08:08:51;;;;;;;;;;;;;;;;;;5076538;28;20347;-27
2022/03/31 08:11:17;;;;;;;;;;;;;;;;;;5077663;28;20008;-27
2022/03/31 08:13:43;;;;;;;;;;;;;;;;;;5078319;28;20371;-27
2022/03/31 08:16:09;;;;;;;;;;;;;;;;;;5077960;28;19923;-27
2022/03/31 08:18:36;;;;;;;;;;;;;;;;;;5078477;28;19966;-28
2022/03/31 08:21:02;;;;;;;;;;;;;;;;;;5078209;28;19913;-27
2022/03/31 08:23:28;;;;;;;;;;;;;;;;;;5077573;28;20267;-27
2022/03/31 08:25:54;;;;;;;;;;;;;;;;;;5078105;28;19912;-27
2022/03/31 08:28:20;;;;;;;;;;;;;;;;;;5077755;28;19912;-27
2022/03/31 08:30:46;;;;;;;;;;;;;;;;;;5078687;28;20259;-27
2022/03/31 08:33:12;;;;;;;;;;;;;;;;;;5077210;28;20016;-27
2022/03/31 08:35:38;;;;;;;;;;;;;;;;;;5077385;28;19912;-27
2022/03/31 08:38:04;;;;;;;;;;;;;;;;;;5077352;28;19913;-27
2022/03/31 08:40:31;;;;;;;;;;;;;;;;;;5077305;28;19915;-27
2022/03/31 08:42:57;;;;;;;;;;;;;;;;;;5077464;28;19948;-27
2022/03/31 08:45:23;;;;;;;;;;;;;;;;;;5077749;28;20353;-27
2022/03/31 08:47:49;;;;;;;;;;;;;;;;;;5077205;28;19916;-27
2022/03/31 08:50:15;;;;;;;;;;;;;;;;;;5077362;28;20331;-27
2022/03/31 08:52:41;;;;;;;;;;;;;;;;;;5077539;28;20331;-27
2022/03/31 08:55:07;;;;;;;;;;;;;;;;;;5077045;28;19908;-27
2022/03/31 08:57:33;;;;;;;;;;;;;;;;;;5077206;28;19924;-27
2022/03/31 08:59:59;;;;;;;;;;;;;;;;;;5077109;28;19912;-27
2022/03/31 09:02:25;;;;;;;;;;;;;;;;;;5076600;28;19921;-27
2022/03/31 09:04:51;;;;;;;;;;;;;;;;;;5076870;28;19912;-27
2022/03/31 09:07:17;;;;;;;;;;;;;;;;;;5077339;28;19917;-27
2022/03/31 09:09:43;;;;;;;;;;;;;;;;;;5076712;28;20066;-27
2022/03/31 09:12:09;;;;;;;;;;;;;;;;;;5076929;28;19919;-27
2022/03/31 09:14:35;;;;;;;;;;;;;;;;;;5058964;28;19960;-27
2022/03/31 09:17:01;;;;;;;;;;;;;;;;;;5077055;28;19909;-27
2022/03/31 09:19:27;;;;;;;;;;;;;;;;;;5075438;28;19966;-27
2022/03/31 09:21:53;;;;;;;;;;;;;;;;;;5076629;28;20027;-27
2022/03/31 09:24:19;;;;;;;;;;;;;;;;;;5076325;28;20405;-26
2022/03/31 09:26:45;;;;;;;;;;;;;;;;;;5076453;28;19959;-26
2022/03/31 09:29:14;;;;;;;;;;;;;;;;;;5076051;28;19912;-26
2022/03/31 09:31:40;;;;;;;;;;;;;;;;;;5076250;28;19908;-26
2022/03/31 09:34:06;;;;;;;;;;;;;;;;;;5076030;28;20421;-27
2022/03/31 09:36:32;;;;;;;;;;;;;;;;;;5076106;28;19985;-27
2022/03/31 09:38:58;;;;;;;;;;;;;;;;;;5076140;28;19916;-26
2022/03/31 09:41:25;;;;;;;;;;;;;;;;;;5075728;28;19999;-26
2022/03/31 09:43:51;;;;;;;;;;;;;;;;;;5076067;28;19922;-25
2022/03/31 09:46:17;;;;;;;;;;;;;;;;;;5075951;28;20346;-26
2022/03/31 09:48:43;;;;;;;;;;;;;;;;;;5075704;28;19908;-27
2022/03/31 09:51:09;;;;;;;;;;;;;;;;;;5075656;28;19916;-26
2022/03/31 09:53:35;;;;;;;;;;;;;;;;;;5075655;28;19909;-27
2022/03/31 09:56:01;;;;;;;;;;;;;;;;;;5075735;28;19912;-27
2022/03/31 09:58:27;;;;;;;;;;;;;;;;;;5075878;28;20299;-27
2022/03/31 10:00:53;;;;;;;;;;;;;;;;;;5075408;28;19948;-27
2022/03/31 10:03:19;;;;;;;;;;;;;;;;;;5075236;28;19955;-27
2022/03/31 10:05:45;;;;;;;;;;;;;;;;;;5075378;28;20276;-27
2022/03/31 10:08:11;;;;;;;;;;;;;;;;;;5075332;28;20011;-27
2022/03/31 10:10:37;;;;;;;;;;;;;;;;;;5075450;28;19917;-26
2022/03/31 10:13:04;;;;;;;;;;;;;;;;;;5057949;28;20330;-26
2022/03/31 10:15:30;;;;;;;;;;;;;;;;;;5075594;28;19913;-27
2022/03/31 10:17:56;;;;;;;;;;;;;;;;;;5075197;28;20327;-27
2022/03/31 10:20:22;;;;;;;;;;;;;;;;;;5075120;28;19922;-27
2022/03/31 10:25:33;;;;;;;;;;;;;;;;;;5075248;28;20025;-27
2022/03/31 10:27:59;;;;;;;;;;;;;;;;;;5075137;28;19974;-27
2022/03/31 10:30:25;;;;;;;;;;;;;;;;;;5074958;28;19912;-27
2022/03/31 10:32:51;;;;;;;;;;;;;;;;;;5075348;28;20290;-27
2022/03/31 10:35:17;;;;;;;;;;;;;;;;;;5075395;28;19913;-27
2022/03/31 10:37:43;;;;;;;;;;;;;;;;;;5075284;28;19922;-27
2022/03/31 10:40:09;;;;;;;;;;;;;;;;;;5075379;28;19923;-27
2022/03/31 10:42:35;;;;;;;;;;;;;;;;;;5075233;28;20070;-27
2022/03/31 10:45:01;;;;;;;;;;;;;;;;;;5074994;28;20369;-27
2022/03/31 10:47:27;;;;;;;;;;;;;;;;;;5074842;28;19959;-27
2022/03/31 10:49:53;;;;;;;;;;;;;;;;;;5074960;28;19919;-27
2022/03/31 10:52:23;;;;;;;;;;;;;;;;;;5074949;28;19909;-27
2022/03/31 10:54:49;;;;;;;;;;;;;;;;;;5075252;28;19943;-27
2022/03/31 10:57:17;;;;;;;;;;;;;;;;;;5074900;28;20275;-27
2022/03/31 10:59:43;;;;;;;;;;;;;;;;;;5057098;28;19908;-27
2022/03/31 11:02:10;;;;;;;;;;;;;;;;;;5075133;28;19915;-27
2022/03/31 11:04:37;;;;;;;;;;;;;;;;;;5075456;28;19916;-27
2022/03/31 11:07:03;;;;;;;;;;;;;;;;;;5075210;28;20335;-27
2022/03/31 11:09:32;;;;;;;;;;;;;;;;;;5074798;28;19916;-27
2022/03/31 11:11:59;;;;;;;;;;;;;;;;;;5074703;28;19962;-27
2022/03/31 11:14:25;;;;;;;;;;;;;;;;;;5074665;28;19953;-27
2022/03/31 11:16:51;;;;;;;;;;;;;;;;;;5074983;28;19936;-27
2022/03/31 11:19:19;;;;;;;;;;;;;;;;;;5075129;28;19944;-27
2022/03/31 11:21:45;;;;;;;;;;;;;;;;;;5074607;28;19952;-27
2022/03/31 11:24:11;;;;;;;;;;;;;;;;;;5074716;28;20307;-27
2022/03/31 11:26:40;;;;;;;;;;;;;;;;;;5074801;28;19926;-27
2022/03/31 11:29:06;;;;;;;;;;;;;;;;;;5074648;28;19916;-27
2022/03/31 11:31:32;;;;;;;;;;;;;;;;;;5074646;28;19913;-27
2022/03/31 11:33:58;;;;;;;;;;;;;;;;;;5074441;28;20254;-27
2022/03/31 11:36:25;;;;;;;;;;;;;;;;;;5075088;28;20244;-27
2022/03/31 11:38:51;;;;;;;;;;;;;;;;;;5074788;28;19924;-27
2022/03/31 11:41:17;;;;;;;;;;;;;;;;;;5074805;28;20354;-27
2022/03/31 11:43:43;;;;;;;;;;;;;;;;;;5077104;28;19909;-27
2022/03/31 11:46:09;;;;;;;;;;;;;;;;;;5078470;28;20279;-27
2022/03/31 11:48:35;;;;;;;;;;;;;;;;;;5078280;28;19908;-27
2022/03/31 11:51:01;;;;;;;;;;;;;;;;;;5078216;28;19966;-27
2022/03/31 11:53:27;;;;;;;;;;;;;;;;;;5078321;28;19908;-27
2022/03/31 11:55:53;;;;;;;;;;;;;;;;;;5078138;28;19916;-27
2022/03/31 11:58:19;;;;;;;;;;;;;;;;;;5077981;28;19912;-27
2022/03/31 12:00:45;;;;;;;;;;;;;;;;;;5078000;28;20003;-28
2022/03/31 12:03:11;;;;;;;;;;;;;;;;;;5077866;28;19936;-26
2022/03/31 12:05:37;;;;;;;;;;;;;;;;;;5078214;28;19912;-27
2022/03/31 12:08:03;;;;;;;;;;;;;;;;;;5077835;28;20358;-27
2022/03/31 12:10:29;;;;;;;;;;;;;;;;;;5078090;28;19924;-27
2022/03/31 12:12:55;;;;;;;;;;;;;;;;;;5077745;28;19982;-28
2022/03/31 12:15:21;;;;;;;;;;;;;;;;;;5077847;28;19920;-27
2022/03/31 12:17:47;;;;;;;;;;;;;;;;;;5077526;28;19971;-27
2022/03/31 12:20:13;;;;;;;;;;;;;;;;;;5077582;28;19955;-27
2022/03/31 12:22:39;;;;;;;;;;;;;;;;;;5077329;28;19909;-25
2022/03/31 12:25:05;;;;;;;;;;;;;;;;;;5078033;28;19923;-26
2022/03/31 12:27:31;;;;;;;;;;;;;;;;;;5077809;28;19916;-26
2022/03/31 12:29:57;;;;;;;;;;;;;;;;;;5077571;28;20201;-26
2022/03/31 12:32:23;;;;;;;;;;;;;;;;;;5077919;28;19973;-27
2022/03/31 12:34:49;;;;;;;;;;;;;;;;;;5077970;28;19935;-27
2022/03/31 12:37:15;;;;;;;;;;;;;;;;;;5077347;28;19912;-27
2022/03/31 12:39:41;;;;;;;;;;;;;;;;;;5077236;28;20236;-27
2022/03/31 12:42:07;;;;;;;;;;;;;;;;;;5077162;28;19908;-27
2022/03/31 12:44:33;;;;;;;;;;;;;;;;;;5077732;28;19919;-27
2022/03/31 12:46:59;;;;;;;;;;;;;;;;;;5077068;28;19916;-26
2022/03/31 12:49:25;;;;;;;;;;;;;;;;;;5076989;28;19931;-26
2022/03/31 12:51:51;;;;;;;;;;;;;;;;;;5076775;28;20258;-27
2022/03/31 12:54:17;;;;;;;;;;;;;;;;;;5076709;28;20343;-27
2022/03/31 12:56:43;;;;;;;;;;;;;;;;;;5077294;28;19909;-27
2022/03/31 12:59:09;;;;;;;;;;;;;;;;;;5076611;28;19955;-27
2022/03/31 13:01:35;;;;;;;;;;;;;;;;;;5076674;28;19909;-27
2022/03/31 13:04:01;;;;;;;;;;;;;;;;;;5076342;28;20009;-27
2022/03/31 13:06:28;;;;;;;;;;;;;;;;;;5076667;28;20370;-27
2022/03/31 13:08:54;;;;;;;;;;;;;;;;;;5076525;28;19908;-27
2022/03/31 13:11:21;;;;;;;;;;;;;;;;;;5076849;28;19912;-27
2022/03/31 13:13:47;;;;;;;;;;;;;;;;;;5076768;28;19993;-27
2022/03/31 13:16:14;;;;;;;;;;;;;;;;;;5076499;28;19912;-27
2022/03/31 13:18:40;;;;;;;;;;;;;;;;;;5076672;28;19909;-28
2022/03/31 13:21:06;;;;;;;;;;;;;;;;;;5076565;28;20311;-27
2022/03/31 13:23:32;;;;;;;;;;;;;;;;;;5076512;28;19909;-27
2022/03/31 13:25:58;;;;;;;;;;;;;;;;;;5076591;28;20242;-27
2022/03/31 13:28:25;;;;;;;;;;;;;;;;;;5076463;28;20011;-27
2022/03/31 13:30:51;;;;;;;;;;;;;;;;;;5076144;28;19909;-27
2022/03/31 13:33:17;;;;;;;;;;;;;;;;;;5076333;28;19994;-27
2022/03/31 13:35:43;;;;;;;;;;;;;;;;;;5076514;28;19948;-27
2022/03/31 13:38:10;;;;;;;;;;;;;;;;;;5076438;28;19925;-27
2022/03/31 13:40:37;;;;;;;;;;;;;;;;;;5076112;28;19999;-27
2022/03/31 13:43:06;;;;;;;;;;;;;;;;;;5076059;28;19916;-27
2022/03/31 13:45:33;;;;;;;;;;;;;;;;;;5076625;28;19912;-27
2022/03/31 13:47:59;;;;;;;;;;;;;;;;;;5076170;28;19916;-27
2022/03/31 13:50:25;;;;;;;;;;;;;;;;;;5075915;28;19920;-27
2022/03/31 13:55:40;;;;;;;;;;;;;;;;;;5047455;28;19924;-27
2022/03/31 14:01:12;;;;;;;;;;;;;;;;;;5075745;28;20013;-27
2022/03/31 14:03:38;;;;;;;;;;;;;;;;;;5068160;28;19934;-27
2022/03/31 14:06:06;;;;;;;;;;;;;;;;;;5074718;28;20208;-27
2022/03/31 14:08:32;;;;;;;;;;;;;;;;;;5075735;28;19989;-27
2022/03/31 14:11:00;;;;;;;;;;;;;;;;;;5075773;28;19923;-27
2022/03/31 14:13:26;;;;;;;;;;;;;;;;;;5075426;28;20348;-27
2022/03/31 14:15:52;;;;;;;;;;;;;;;;;;5075496;28;19913;-27
2022/03/31 14:18:18;;;;;;;;;;;;;;;;;;5075979;28;19913;-27
2022/03/31 14:20:44;;;;;;;;;;;;;;;;;;5075327;28;20366;-27
2022/03/31 14:23:11;;;;;;;;;;;;;;;;;;5075521;28;19916;-27
2022/03/31 14:25:37;;;;;;;;;;;;;;;;;;5075265;28;20258;-27
2022/03/31 14:28:04;;;;;;;;;;;;;;;;;;5075667;28;20003;-27
2022/03/31 14:30:30;;;;;;;;;;;;;;;;;;5075475;28;20275;-27
2022/03/31 14:32:56;;;;;;;;;;;;;;;;;;5075643;28;19912;-27
2022/03/31 14:35:22;;;;;;;;;;;;;;;;;;5075106;28;19923;-27
2022/03/31 14:37:48;;;;;;;;;;;;;;;;;;5075099;28;19919;-27
2022/03/31 14:40:15;;;;;;;;;;;;;;;;;;5075106;28;19935;-27
2022/03/31 14:42:41;;;;;;;;;;;;;;;;;;5074896;28;19923;-27
2022/03/31 14:45:07;;;;;;;;;;;;;;;;;;5074998;28;19912;-27
2022/03/31 14:47:33;;;;;;;;;;;;;;;;;;5074009;28;19924;-27
2022/03/31 14:49:59;;;;;;;;;;;;;;;;;;5075010;28;19916;-27
2022/03/31 14:52:25;;;;;;;;;;;;;;;;;;5075141;28;19935;-27
2022/03/31 14:54:51;;;;;;;;;;;;;;;;;;5075023;28;19913;-27
2022/03/31 14:57:20;;;;;;;;;;;;;;;;;;5074880;28;20007;-27
2022/03/31 14:59:46;;;;;;;;;;;;;;;;;;5075189;28;20262;-27
2022/03/31 15:02:12;;;;;;;;;;;;;;;;;;5075142;28;19912;-27
2022/03/31 15:04:38;;;;;;;;;;;;;;;;;;5075349;28;20258;-27
2022/03/31 15:07:05;;;;;;;;;;;;;;;;;;5074753;28;19916;-27
2022/03/31 15:15:00;;;;;;;;;;;;;;;;;;5074842;28;19923;-27
2022/03/31 15:17:27;;;;;;;;;;;;;;;;;;5075082;28;19913;-27
2022/03/31 15:19:53;;;;;;;;;;;;;;;;;;5079036;28;19956;-27
2022/03/31 15:22:19;;;;;;;;;;;;;;;;;;5078945;28;19990;-27
2022/03/31 15:24:45;;;;;;;;;;;;;;;;;;5078996;28;20243;-27
2022/03/31 15:27:11;;;;;;;;;;;;;;;;;;5079255;28;20004;-27
2022/03/31 15:29:38;;;;;;;;;;;;;;;;;;5078673;28;20342;-26
2022/03/31 15:32:04;;;;;;;;;;;;;;;;;;5078800;28;19909;-26
2022/03/31 15:34:30;;;;;;;;;;;;;;;;;;5078430;28;19944;-26
2022/03/31 15:36:56;;;;;;;;;;;;;;;;;;5079244;28;19916;-26
2022/03/31 15:39:24;;;;;;;;;;;;;;;;;;5079204;28;19913;-27
2022/03/31 15:41:50;;;;;;;;;;;;;;;;;;5078307;28;19938;-26
2022/03/31 15:44:16;;;;;;;;;;;;;;;;;;5078869;28;19999;-26
2022/03/31 15:46:42;;;;;;;;;;;;;;;;;;5078141;28;20027;-26
2022/03/31 15:49:08;;;;;;;;;;;;;;;;;;5078206;28;19909;-27
2022/03/31 15:51:34;;;;;;;;;;;;;;;;;;5078355;28;19912;-26
2022/03/31 15:54:00;;;;;;;;;;;;;;;;;;5060399;28;20258;-26
2022/03/31 15:56:26;;;;;;;;;;;;;;;;;;5078057;28;20000;-26
2022/03/31 15:58:52;;;;;;;;;;;;;;;;;;5078110;28;19909;-27
2022/03/31 16:01:18;;;;;;;;;;;;;;;;;;5078280;28;19924;-27
2022/03/31 16:03:44;;;;;;;;;;;;;;;;;;5077768;28;20220;-27
2022/03/31 16:06:10;;;;;;;;;;;;;;;;;;5078972;28;19913;-27
2022/03/31 16:08:36;;;;;;;;;;;;;;;;;;5078324;28;20330;-27
2022/03/31 16:11:02;;;;;;;;;;;;;;;;;;5077723;28;19973;-26
2022/03/31 16:13:28;;;;;;;;;;;;;;;;;;5077708;28;20290;-27
2022/03/31 16:15:55;;;;;;;;;;;;;;;;;;5077715;28;19923;-27
2022/03/31 16:18:21;;;;;;;;;;;;;;;;;;5077944;28;19908;-27
2022/03/31 16:20:47;;;;;;;;;;;;;;;;;;5078252;28;20270;-27
2022/03/31 16:25:58;;;;;;;;;;;;;;;;;;5077690;28;19922;-27
2022/03/31 16:28:25;;;;;;;;;;;;;;;;;;5077803;28;19963;-27
2022/03/31 16:30:53;;;;;;;;;;;;;;;;;;5077438;28;19943;-27
2022/03/31 16:33:19;;;;;;;;;;;;;;;;;;5077603;28;19916;-27
2022/03/31 16:35:45;;;;;;;;;;;;;;;;;;5077631;28;19922;-27
2022/03/31 16:38:11;;;;;;;;;;;;;;;;;;5077890;28;20393;-27
2022/03/31 16:40:37;;;;;;;;;;;;;;;;;;5077632;28;20292;-27
2022/03/31 16:43:03;;;;;;;;;;;;;;;;;;5077506;28;19952;-27
2022/03/31 16:45:29;;;;;;;;;;;;;;;;;;5077249;28;19908;-27
2022/03/31 16:47:55;;;;;;;;;;;;;;;;;;5077034;28;19916;-27
2022/03/31 16:50:21;;;;;;;;;;;;;;;;;;5077218;28;19909;-27
2022/03/31 16:52:48;;;;;;;;;;;;;;;;;;5077040;28;19923;-27
2022/03/31 16:55:14;;;;;;;;;;;;;;;;;;5076969;28;20020;-27
2022/03/31 16:57:40;;;;;;;;;;;;;;;;;;5076924;28;20370;-27
2022/03/31 17:00:07;;;;;;;;;;;;;;;;;;5077149;28;19920;-27
2022/03/31 17:02:33;;;;;;;;;;;;;;;;;;5076590;28;19916;-27
2022/03/31 17:04:59;;;;;;;;;;;;;;;;;;5077170;28;19919;-27
2022/03/31 17:07:25;;;;;;;;;;;;;;;;;;5076609;28;19916;-27
2022/03/31 17:09:51;;;;;;;;;;;;;;;;;;5077016;28;19966;-27
2022/03/31 17:12:19;;;;;;;;;;;;;;;;;;5076804;28;19917;-27
2022/03/31 17:14:46;;;;;;;;;;;;;;;;;;5077035;28;19908;-27